createdAt,value
2023-01-23T00:02:15.848Z,2.50
2023-01-23T00:07:17.692Z,2.50
2023-01-23T00:12:19.426Z,2.40
2023-01-23T00:17:21.678Z,2.50
2023-01-23T00:22:23.442Z,2.50
2023-01-23T00:27:25.391Z,2.50
2023-01-23T00:32:28.587Z,2.40
2023-01-23T00:37:30.278Z,2.40
2023-01-23T00:42:33.507Z,2.40
2023-01-23T00:47:36.325Z,2.50
2023-01-23T00:52:38.130Z,2.50
2023-01-23T00:57:41.119Z,2.50
2023-01-23T01:02:43.130Z,2.50
2023-01-23T01:07:45.899Z,2.50
2023-01-23T01:12:47.820Z,2.50
2023-01-23T01:17:49.715Z,2.50
2023-01-23T01:22:52.083Z,2.50
2023-01-23T01:27:53.905Z,2.60
2023-01-23T01:32:57.310Z,2.60
2023-01-23T01:37:59.774Z,2.60
2023-01-23T01:43:07.777Z,2.60
2023-01-23T01:48:09.962Z,2.50
2023-01-23T01:53:11.894Z,2.50
2023-01-23T01:58:14.325Z,2.50
2023-01-23T02:03:21.834Z,2.50
2023-01-23T02:08:41.520Z,2.60
2023-01-23T02:13:43.741Z,2.60
2023-01-23T02:18:49.204Z,2.50
2023-01-23T02:24:12.817Z,2.50
2023-01-23T02:29:15.949Z,2.60
2023-01-23T02:34:17.920Z,2.70
2023-01-23T02:39:20.185Z,2.70
2023-01-23T02:44:30.530Z,2.60
2023-01-23T02:49:33.023Z,2.60
2023-01-23T02:54:34.840Z,2.60
2023-01-23T02:59:54.997Z,2.60
2023-01-23T03:04:56.987Z,2.40
2023-01-23T03:09:58.812Z,2.50
2023-01-23T03:15:00.660Z,2.50
2023-01-23T03:20:05.967Z,2.40
2023-01-23T03:25:09.056Z,2.40
2023-01-23T03:30:13.697Z,2.40
2023-01-23T03:35:16.978Z,2.50
2023-01-23T03:40:46.871Z,2.40
2023-01-23T03:45:48.582Z,2.40
2023-01-23T03:50:50.845Z,2.50
2023-01-23T03:55:52.602Z,2.40
2023-01-23T04:00:55.162Z,2.40
2023-01-23T04:05:59.907Z,2.40
2023-01-23T04:11:09.343Z,2.50
2023-01-23T04:16:11.096Z,2.40
2023-01-23T04:21:12.861Z,2.50
2023-01-23T04:26:15.091Z,2.60
2023-01-23T04:31:17.021Z,2.50
2023-01-23T04:36:18.796Z,2.50
2023-01-23T04:41:26.499Z,2.40
2023-01-23T04:46:28.199Z,2.40
2023-01-23T04:51:29.877Z,2.40
2023-01-23T04:56:33.319Z,2.40
2023-01-23T05:01:35.577Z,2.40
2023-01-23T05:06:37.693Z,2.50
2023-01-23T05:11:39.443Z,2.50
2023-01-23T05:16:42.696Z,2.60
2023-01-23T05:21:45.701Z,2.70
2023-01-23T05:26:47.791Z,2.70
2023-01-23T05:31:50.128Z,2.70
2023-01-23T05:36:54.495Z,2.50
2023-01-23T05:41:56.204Z,2.60
2023-01-23T05:46:57.922Z,2.50
2023-01-23T05:51:59.736Z,2.50
2023-01-23T05:57:01.467Z,2.40
2023-01-23T06:02:03.243Z,2.50
2023-01-23T06:07:05.376Z,2.60
2023-01-23T06:12:08.137Z,2.50
2023-01-23T06:17:12.072Z,2.40
2023-01-23T06:22:14.878Z,2.60
2023-01-23T06:27:16.787Z,2.60
2023-01-23T06:32:21.135Z,2.50
2023-01-23T06:37:23.293Z,2.50
2023-01-23T06:42:25.072Z,2.60
2023-01-23T06:47:26.843Z,2.50
2023-01-23T06:52:29.260Z,2.50
2023-01-23T06:57:31.188Z,2.60
2023-01-23T07:02:32.983Z,2.60
2023-01-23T07:07:34.868Z,2.60
2023-01-23T07:12:37.054Z,2.60
2023-01-23T07:17:39.255Z,2.60
2023-01-23T07:22:41.374Z,2.70
2023-01-23T07:27:43.439Z,2.80
2023-01-23T07:32:45.663Z,2.80
2023-01-23T07:37:47.708Z,2.80
2023-01-23T07:42:49.535Z,2.70
2023-01-23T07:47:51.548Z,2.80
2023-01-23T07:52:54.568Z,2.90
2023-01-23T07:57:58.178Z,3.00
2023-01-23T08:02:59.987Z,3.00
2023-01-23T08:08:12.531Z,3.00
2023-01-23T08:13:15.118Z,3.00
2023-01-23T08:18:16.808Z,2.90
2023-01-23T08:23:18.522Z,2.90
2023-01-23T08:28:20.677Z,2.80
2023-01-23T08:33:22.784Z,2.90
2023-01-23T08:38:25.571Z,3.10
2023-01-23T08:43:27.606Z,2.90
2023-01-23T08:48:30.633Z,3.00
2023-01-23T08:53:33.900Z,3.10
2023-01-23T08:58:35.628Z,3.10
2023-01-23T09:03:37.416Z,3.10
2023-01-23T09:08:39.492Z,3.20
2023-01-23T09:13:42.133Z,3.20
2023-01-23T09:18:44.072Z,3.10
2023-01-23T09:23:46.054Z,3.20
2023-01-23T09:28:47.799Z,3.20
2023-01-23T09:33:49.637Z,3.10
2023-01-23T09:38:51.396Z,3.10
2023-01-23T09:44:07.363Z,3.10
2023-01-23T09:49:49.295Z,3.10
2023-01-23T09:54:59.981Z,3.30
2023-01-23T10:00:13.663Z,3.20
2023-01-23T10:05:20.970Z,3.10
2023-01-23T10:10:46.423Z,3.10
2023-01-23T10:15:48.124Z,3.30
2023-01-23T10:21:02.173Z,3.60
2023-01-23T10:26:04.721Z,3.50
2023-01-23T10:31:21.991Z,3.70
2023-01-23T10:36:41.798Z,3.80
2023-01-23T10:41:54.306Z,3.80
2023-01-23T10:47:11.307Z,3.60
2023-01-23T10:52:33.301Z,3.90
2023-01-23T10:57:48.859Z,3.60
2023-01-23T11:02:50.846Z,3.50
2023-01-23T11:07:56.068Z,3.50
2023-01-23T11:13:00.670Z,3.60
2023-01-23T11:18:02.577Z,3.50
2023-01-23T11:23:16.930Z,3.70
2023-01-23T11:28:34.282Z,3.60
2023-01-23T11:34:04.678Z,3.70
2023-01-23T11:39:18.383Z,3.50
2023-01-23T11:44:23.211Z,3.70
2023-01-23T11:49:55.289Z,4.00
2023-01-23T11:55:14.961Z,3.90
2023-01-23T12:00:22.774Z,3.70
2023-01-23T12:05:56.887Z,3.90
2023-01-23T12:11:13.851Z,3.90
2023-01-23T12:16:50.687Z,4.00
2023-01-23T12:21:57.946Z,4.20
2023-01-23T12:27:34.510Z,4.00
2023-01-23T12:32:44.554Z,3.90
2023-01-23T12:37:55.902Z,3.80
2023-01-23T12:43:16.471Z,3.50
2023-01-23T12:48:30.938Z,4.00
2023-01-23T12:53:38.135Z,3.90
2023-01-23T12:58:59.737Z,4.00
2023-01-23T13:04:19.624Z,4.10
2023-01-23T13:09:47.148Z,4.00
2023-01-23T13:15:38.790Z,4.00
2023-01-23T13:21:22.816Z,3.70
2023-01-23T13:26:29.101Z,3.80
2023-01-23T13:31:47.409Z,3.80
2023-01-23T13:36:53.634Z,3.70
2023-01-23T13:42:18.521Z,3.80
2023-01-23T14:20:55.176Z,3.90
2023-01-23T14:25:57.692Z,3.70
2023-01-23T14:31:06.038Z,3.70
2023-01-23T14:36:17.455Z,3.70
2023-01-23T14:41:27.908Z,3.60
2023-01-23T14:46:38.150Z,3.50
2023-01-23T14:51:40.352Z,3.50
2023-01-23T14:56:43.073Z,3.50
2023-01-23T15:01:57.436Z,3.60
2023-01-23T15:07:01.053Z,3.50
2023-01-23T15:12:11.807Z,3.50
2023-01-23T15:17:21.743Z,3.40
2023-01-23T15:22:29.002Z,3.50
2023-01-23T15:27:34.495Z,3.30
2023-01-23T15:32:39.051Z,3.20
2023-01-23T15:37:46.428Z,3.20
2023-01-23T15:43:18.835Z,3.40
2023-01-23T15:48:20.711Z,3.30
2023-01-23T15:53:22.449Z,3.40
2023-01-23T15:58:25.533Z,3.30
2023-01-23T16:03:27.326Z,3.40
2023-01-23T16:08:29.053Z,3.20
2023-01-23T16:13:30.789Z,3.20
2023-01-23T16:18:32.507Z,3.30
2023-01-23T16:23:46.316Z,3.20
2023-01-23T16:28:49.186Z,3.30
2023-01-23T16:33:51.063Z,3.30
2023-01-23T16:38:56.507Z,3.20
2023-01-23T16:43:58.296Z,3.10
2023-01-23T16:49:00.370Z,3.10
2023-01-23T16:54:14.195Z,3.20
2023-01-23T16:59:29.263Z,3.10
2023-01-23T17:04:33.716Z,3.10
2023-01-23T17:09:35.497Z,3.00
2023-01-23T17:14:41.433Z,3.10
2023-01-23T17:19:44.360Z,3.20
2023-01-23T17:24:46.205Z,3.00
2023-01-23T17:29:49.482Z,3.00
2023-01-23T17:34:51.633Z,3.00
2023-01-23T17:39:53.859Z,3.00
2023-01-23T17:44:55.890Z,3.00
2023-01-23T17:49:58.324Z,3.20
2023-01-23T17:55:00.151Z,3.10
2023-01-23T18:00:02.959Z,3.10
2023-01-23T18:05:06.529Z,3.10
2023-01-23T18:10:12.882Z,3.10
2023-01-23T18:15:29.223Z,3.20
2023-01-23T18:20:33.104Z,3.30
2023-01-23T18:25:36.030Z,3.20
2023-01-23T18:30:57.418Z,3.20
2023-01-23T18:36:11.222Z,3.20
2023-01-23T18:41:23.742Z,3.20
2023-01-23T18:46:27.804Z,3.10
2023-01-23T18:51:46.623Z,3.30
2023-01-23T18:57:02.738Z,3.20
2023-01-23T19:02:39.283Z,3.20
2023-01-23T19:07:43.265Z,3.10
2023-01-23T19:13:06.241Z,3.10
2023-01-23T19:18:39.374Z,3.20
2023-01-23T19:23:55.739Z,3.20
2023-01-23T19:28:59.945Z,3.20
2023-01-23T19:34:06.889Z,3.10
2023-01-23T19:39:10.734Z,3.10
2023-01-23T19:44:17.196Z,3.10
2023-01-23T19:49:19.253Z,3.10
2023-01-23T19:54:23.956Z,3.00
2023-01-23T19:59:27.345Z,3.10
2023-01-23T20:04:29.142Z,3.20
2023-01-23T20:09:30.929Z,3.20
2023-01-23T20:14:32.740Z,3.30
2023-01-23T20:19:34.454Z,3.30
2023-01-23T20:24:37.121Z,3.20
2023-01-23T20:29:39.678Z,3.10
2023-01-23T20:34:41.427Z,3.20
2023-01-23T20:39:43.244Z,3.10
2023-01-23T20:44:44.987Z,3.10
2023-01-23T20:49:46.831Z,3.20
2023-01-23T20:54:48.505Z,3.20
2023-01-23T21:00:00.506Z,3.10
2023-01-23T21:05:02.267Z,2.90
2023-01-23T21:10:04.412Z,3.00
2023-01-23T21:15:06.578Z,3.00
2023-01-23T21:20:08.920Z,3.10
2023-01-23T21:25:11.987Z,3.00
2023-01-23T21:30:14.254Z,3.00
2023-01-23T21:35:16.005Z,3.00
2023-01-23T21:40:17.813Z,2.90
2023-01-23T21:45:20.847Z,3.00
2023-01-23T21:50:22.865Z,3.00
2023-01-23T21:55:24.615Z,3.10
2023-01-23T22:00:47.047Z,3.10
2023-01-23T22:05:49.212Z,3.10
2023-01-23T22:10:51.814Z,3.10
2023-01-23T22:15:53.656Z,3.00
2023-01-23T22:21:01.265Z,3.10
2023-01-23T22:26:07.797Z,3.20
2023-01-23T22:31:14.472Z,3.00
2023-01-23T22:36:19.497Z,3.00
2023-01-23T22:41:22.971Z,2.90
2023-01-23T22:46:24.784Z,2.90
2023-01-23T22:51:27.987Z,2.90
2023-01-23T22:56:31.229Z,2.90
2023-01-23T23:01:33.213Z,2.90
2023-01-23T23:06:34.919Z,2.80
2023-01-23T23:11:37.360Z,2.80
2023-01-23T23:16:43.306Z,2.80
2023-01-23T23:21:45.114Z,3.00
2023-01-23T23:26:48.717Z,3.00
2023-01-23T23:31:53.287Z,3.00
2023-01-23T23:36:55.066Z,3.00
2023-01-23T23:41:58.721Z,3.10
2023-01-23T23:47:00.446Z,3.20
2023-01-23T23:52:02.635Z,3.10
2023-01-23T23:57:04.432Z,3.00
